Time;durP1;ratioP1;P1;durP2;ratioP2;P2;SDS_P1;SDS_P2;PMS_P1;PMS_P2;Temp;Humidity;BMP_temperature;BMP_pressure;BME280_temperature;BME280_humidity;BME280_pressure;Samples;Min_cycle;Max_cycle;Signal;HPM_P1;HPM_P2
2024/03/12 00:00:15;;;;;;;22.30;14.20;;;;;;;-0.69;100.00;102077.57;105778;1256;71847;-74
2024/03/12 00:02:46;;;;;;;25.70;15.80;;;;;;;-0.69;100.00;102079.62;105995;1250;62565;-75
2024/03/12 00:05:15;;;;;;;23.30;14.10;;;;;;;-0.70;100.00;102079.61;105804;1256;71389;-75
2024/03/12 00:07:42;;;;;;;20.60;13.60;;;;;;;-0.69;100.00;102077.73;106051;1256;60144;-75
2024/03/12 00:10:15;;;;;;;20.60;13.20;;;;;;;-0.69;100.00;102079.63;105729;1258;59543;-74
2024/03/12 00:12:44;;;;;;;22.10;14.00;;;;;;;-0.71;100.00;102075.30;105954;1256;73501;-73
2024/03/12 00:15:12;;;;;;;21.40;13.70;;;;;;;-0.73;100.00;102071.17;105909;1256;63199;-74
2024/03/12 00:17:39;;;;;;;28.10;14.80;;;;;;;-0.75;100.00;102070.30;105877;1256;72675;-74
2024/03/12 00:20:16;;;;;;;23.20;12.90;;;;;;;-0.76;100.00;102071.83;105882;1256;60151;-77
2024/03/12 00:22:47;;;;;;;20.80;13.10;;;;;;;-0.76;100.00;102068.55;105968;1256;59541;-76
2024/03/12 00:25:15;;;;;;;26.30;14.70;;;;;;;-0.77;100.00;102063.58;105852;1256;73107;-75
2024/03/12 00:27:44;;;;;;;23.00;14.80;;;;;;;-0.76;100.00;102064.45;105840;1256;62731;-75
2024/03/12 00:30:13;;;;;;;23.80;14.00;;;;;;;-0.75;100.00;102062.73;105993;1256;74894;-75
2024/03/12 00:32:41;;;;;;;28.50;16.00;;;;;;;-0.73;100.00;102060.87;106046;1254;59893;-75
2024/03/12 00:35:12;;;;;;;17.90;12.70;;;;;;;-0.69;100.00;102059.88;105826;1256;61126;-74
2024/03/12 00:37:41;;;;;;;26.70;14.60;;;;;;;-0.65;100.00;102053.21;105788;1256;71143;-75
2024/03/12 00:40:12;;;;;;;20.90;11.20;;;;;;;-0.60;100.00;102053.59;106104;1257;63677;-73
2024/03/12 00:42:41;;;;;;;17.00;11.30;;;;;;;-0.55;100.00;102057.27;106047;1256;72654;-73
2024/03/12 00:45:11;;;;;;;17.40;11.10;;;;;;;-0.53;100.00;102058.48;106067;1250;59628;-75
2024/03/12 00:47:42;;;;;;;19.00;12.40;;;;;;;-0.50;100.00;102058.00;105997;1256;59568;-73
2024/03/12 00:50:11;;;;;;;17.20;12.10;;;;;;;-0.48;100.00;102053.38;105863;1257;71890;-73
2024/03/12 00:52:38;;;;;;;23.50;12.20;;;;;;;-0.47;100.00;102055.45;106017;1256;62876;-73
2024/03/12 00:55:10;;;;;;;19.90;12.70;;;;;;;-0.46;100.00;102059.75;105982;1255;72141;-74
2024/03/12 00:57:42;;;;;;;20.50;14.40;;;;;;;-0.49;100.00;102066.94;105986;1251;59721;-75
2024/03/12 01:00:16;;;;;;;21.60;12.80;;;;;;;-0.58;100.00;102061.54;105861;1255;59625;-74
2024/03/12 01:02:48;;;;;;;17.40;13.20;;;;;;;-0.68;100.00;102055.08;105844;1256;71960;-74
2024/03/12 01:05:17;;;;;;;22.80;13.20;;;;;;;-0.80;100.00;102054.10;105880;1255;62579;-75
2024/03/12 01:07:45;;;;;;;21.30;14.80;;;;;;;-0.88;100.00;102057.29;105904;1256;72558;-74
2024/03/12 01:10:12;;;;;;;23.20;13.00;;;;;;;-0.94;100.00;102054.48;106068;1256;59859;-75
2024/03/12 01:12:40;;;;;;;23.20;13.00;;;;;;;-0.97;100.00;102057.88;105992;1256;60235;-75
2024/03/12 01:15:09;;;;;;;22.40;14.50;;;;;;;-0.97;100.00;102058.05;105923;1255;73166;-74
2024/03/12 01:17:37;;;;;;;17.70;12.70;;;;;;;-0.97;100.00;102055.13;105928;1256;62596;-74
2024/03/12 01:20:09;;;;;;;25.60;13.90;;;;;;;-0.95;100.00;102053.94;105927;1265;72651;-74
2024/03/12 01:22:37;;;;;;;22.20;14.20;;;;;;;-0.97;100.00;102047.92;105866;1251;59797;-73
2024/03/12 01:25:06;;;;;;;21.30;15.10;;;;;;;-0.98;100.00;102047.91;105963;1254;59954;-74
2024/03/12 01:27:34;;;;;;;16.50;13.00;;;;;;;-0.98;100.00;102050.65;105869;1251;71621;-76
2024/03/12 01:30:06;;;;;;;22.50;13.80;;;;;;;-0.96;100.00;102053.07;106016;1260;62569;-77
2024/03/12 01:32:38;;;;;;;19.70;13.90;;;;;;;-0.92;100.00;102051.23;105935;1255;72825;-75
2024/03/12 01:35:09;;;;;;;23.00;15.70;;;;;;;-0.89;100.00;102049.21;106385;1254;59709;-74
2024/03/12 01:37:41;;;;;;;23.60;14.50;;;;;;;-0.89;100.00;102052.14;105952;1252;59522;-75
2024/03/12 01:40:19;;;;;;;21.10;14.60;;;;;;;-0.91;100.00;102051.77;105732;1260;71709;-76
2024/03/12 01:43:01;;;;;;;29.00;18.00;;;;;;;-0.92;100.00;102056.89;106069;1256;63820;-75
2024/03/12 01:45:30;;;;;;;27.10;16.00;;;;;;;-0.95;100.00;102056.70;106070;1251;70306;-76
2024/03/12 01:48:00;;;;;;;30.20;16.90;;;;;;;-0.95;100.00;102056.00;107397;1251;59670;-73
2024/03/12 01:50:28;;;;;;;35.60;18.10;;;;;;;-0.99;100.00;102055.27;109544;1251;58813;-74
2024/03/12 01:52:58;;;;;;;28.60;17.90;;;;;;;-1.03;100.00;102051.98;107357;1251;71825;-75
2024/03/12 01:55:26;;;;;;;27.90;16.70;;;;;;;-1.06;100.00;102051.09;106001;1257;62749;-72
2024/03/12 01:57:54;;;;;;;35.20;18.50;;;;;;;-1.08;100.00;102049.52;106007;1256;71432;-74
2024/03/12 02:00:22;;;;;;;33.10;19.10;;;;;;;-1.08;100.00;102044.54;105989;1251;59658;-73
2024/03/12 02:14:36;;;;;;;30.50;16.90;;;;;;;-1.09;100.00;102043.67;102718;1289;599841;-75
2024/03/12 02:17:05;;;;;;;31.70;19.00;;;;;;;-1.08;100.00;102048.65;104971;1269;59656;-74
2024/03/12 02:19:33;;;;;;;33.70;18.40;;;;;;;-1.04;100.00;102048.87;105012;1264;59293;-72
2024/03/12 02:22:01;;;;;;;33.90;19.10;;;;;;;-0.99;100.00;102045.14;104906;1264;71091;-75
2024/03/12 02:24:29;;;;;;;41.00;21.90;;;;;;;-0.94;100.00;102046.40;104948;1265;62771;-76
2024/03/12 02:26:56;;;;;;;44.10;22.10;;;;;;;-0.89;100.00;102041.49;105123;1262;72800;-76
2024/03/12 02:29:24;;;;;;;45.20;22.90;;;;;;;-0.86;100.00;102043.91;105105;1259;228138;-74
2024/03/12 02:31:52;;;;;;;43.30;21.40;;;;;;;-0.89;100.00;102050.92;105282;1260;60017;-74
2024/03/12 02:34:19;;;;;;;47.90;23.70;;;;;;;-0.92;100.00;102046.59;105280;1260;70664;-75
2024/03/12 02:36:47;;;;;;;51.10;25.00;;;;;;;-0.98;100.00;102047.21;105263;1263;64543;-74
2024/03/12 02:39:15;;;;;;;49.20;23.80;;;;;;;-1.03;100.00;102040.13;105337;1263;72639;-75
2024/03/12 02:41:42;;;;;;;53.20;24.80;;;;;;;-1.07;100.00;102037.69;105265;1260;59625;-76
2024/03/12 02:44:10;;;;;;;50.70;23.70;;;;;;;-1.10;100.00;102036.27;105656;1259;59695;-75
2024/03/12 02:46:37;;;;;;;47.80;22.50;;;;;;;-1.12;100.00;102035.40;105651;1254;73086;-75
2024/03/12 02:49:07;;;;;;;46.60;22.20;;;;;;;-1.13;100.00;102033.66;105616;1258;62376;-75
2024/03/12 02:51:35;;;;;;;44.10;20.70;;;;;;;-1.13;100.00;102029.73;105618;1259;72788;-74
2024/03/12 02:54:04;;;;;;;45.80;21.70;;;;;;;-1.14;100.00;102024.73;105496;1259;60188;-74
2024/03/12 02:56:33;;;;;;;44.00;21.40;;;;;;;-1.16;100.00;102025.39;105681;1259;59656;-75
2024/03/12 02:59:01;;;;;;;37.90;19.80;;;;;;;-1.18;100.00;102019.89;105625;1254;71828;-74
2024/03/12 03:01:29;;;;;;;38.70;22.90;;;;;;;-1.19;100.00;102017.65;105590;1254;63593;-75
2024/03/12 03:03:57;;;;;;;34.20;21.10;;;;;;;-1.19;100.00;102016.10;105673;1254;71645;-75
2024/03/12 03:06:25;;;;;;;28.40;19.20;;;;;;;-1.20;100.00;102013.52;105708;1259;61720;-74
2024/03/12 03:08:52;;;;;;;27.00;17.30;;;;;;;-1.21;100.00;102020.02;105715;1257;59513;-76
2024/03/12 03:11:20;;;;;;;31.50;20.40;;;;;;;-1.22;100.00;102017.25;105757;1257;73628;-74
2024/03/12 03:13:47;;;;;;;28.70;18.80;;;;;;;-1.23;100.00;102018.62;105732;1258;63980;-75
2024/03/12 03:16:15;;;;;;;33.00;18.60;;;;;;;-1.26;100.00;102013.63;105651;1257;72975;-74
2024/03/12 03:18:43;;;;;;;29.90;17.20;;;;;;;-1.26;100.00;102014.83;105530;1254;59667;-74
2024/03/12 03:21:10;;;;;;;27.30;16.80;;;;;;;-1.26;100.00;102016.20;105581;1253;60239;-73
2024/03/12 03:23:41;;;;;;;37.10;17.60;;;;;;;-1.27;100.00;102016.70;105710;1257;72816;-74
2024/03/12 03:26:10;;;;;;;26.80;16.70;;;;;;;-1.25;100.00;102013.13;105660;1253;63681;-74
2024/03/12 03:28:37;;;;;;;27.10;18.00;;;;;;;-1.23;100.00;102008.51;105587;1254;71476;-74
2024/03/12 03:31:05;;;;;;;23.40;16.80;;;;;;;-1.25;100.00;102004.70;105755;1256;60871;-74
2024/03/12 03:33:33;;;;;;;25.10;15.60;;;;;;;-1.22;100.00;102007.14;105721;1258;59714;-74
2024/03/12 03:36:00;;;;;;;25.50;16.80;;;;;;;-1.22;100.00;102006.96;105689;1253;71522;-78
2024/03/12 03:38:29;;;;;;;24.50;17.40;;;;;;;-1.20;100.00;102005.11;105650;1255;62361;-74
2024/03/12 03:40:57;;;;;;;21.70;14.50;;;;;;;-1.16;100.00;102009.62;105683;1257;72655;-75
2024/03/12 03:43:24;;;;;;;27.30;17.70;;;;;;;-1.15;100.00;102006.71;105732;1253;60293;-73
2024/03/12 03:45:52;;;;;;;23.30;16.20;;;;;;;-1.12;100.00;102003.66;106022;1255;59621;-74
2024/03/12 03:48:19;;;;;;;29.40;17.60;;;;;;;-1.10;100.00;102007.61;106240;1253;72994;-73
2024/03/12 03:50:47;;;;;;;29.20;16.80;;;;;;;-1.11;100.00;102000.58;106381;1254;62374;-73
2024/03/12 03:53:14;;;;;;;26.10;17.00;;;;;;;-1.11;100.00;101993.89;106059;1254;70346;-77
2024/03/12 03:55:42;;;;;;;24.70;17.80;;;;;;;-1.10;100.00;101995.95;105690;1255;59737;-74
2024/03/12 03:58:10;;;;;;;26.20;17.20;;;;;;;-1.08;100.00;101998.89;105610;1258;59667;-78
2024/03/12 04:00:39;;;;;;;27.90;17.70;;;;;;;-1.05;100.00;101993.77;105772;1254;71974;-75
2024/03/12 04:03:07;;;;;;;24.80;17.30;;;;;;;-1.02;100.00;101992.94;105700;1254;62674;-76
2024/03/12 04:05:35;;;;;;;25.50;17.30;;;;;;;-0.98;100.00;101991.77;105747;1257;72918;-75
2024/03/12 04:08:02;;;;;;;26.10;18.30;;;;;;;-0.95;100.00;101991.11;105616;1257;59654;-76
2024/03/12 04:10:32;;;;;;;26.90;17.80;;;;;;;-0.92;100.00;101993.04;105593;1259;59696;-76
2024/03/12 04:13:00;;;;;;;28.80;16.90;;;;;;;-0.90;100.00;101995.63;105687;1257;73182;-76
2024/03/12 04:15:28;;;;;;;25.50;16.90;;;;;;;-0.89;100.00;101997.02;105755;1253;62250;-75
2024/03/12 04:17:57;;;;;;;32.60;17.60;;;;;;;-0.85;100.00;101993.10;105638;1257;71556;-77
2024/03/12 04:20:25;;;;;;;29.40;17.50;;;;;;;-0.80;100.00;101992.30;105648;1254;59695;-76
2024/03/12 04:22:56;;;;;;;26.00;16.80;;;;;;;-0.76;100.00;101992.16;105663;1257;59634;-77
2024/03/12 04:25:24;;;;;;;21.50;15.90;;;;;;;-0.71;100.00;101993.06;105626;1253;71854;-75
2024/03/12 04:27:53;;;;;;;31.60;18.40;;;;;;;-0.67;100.00;101993.11;105587;1254;62524;-75
2024/03/12 04:30:21;;;;;;;31.70;16.80;;;;;;;-0.61;100.00;101994.17;105721;1254;71373;-76
2024/03/12 04:32:50;;;;;;;31.30;17.20;;;;;;;-0.52;100.00;101995.79;105655;1253;59714;-75
2024/03/12 04:35:18;;;;;;;32.30;18.50;;;;;;;-0.47;100.00;101998.07;105621;1253;60020;-76
2024/03/12 04:37:45;;;;;;;34.60;18.20;;;;;;;-0.41;100.00;101996.06;105664;1257;72204;-76
2024/03/12 04:40:13;;;;;;;34.10;17.50;;;;;;;-0.39;100.00;101992.97;105721;1259;63895;-75
2024/03/12 04:42:43;;;;;;;30.90;19.00;;;;;;;-0.36;100.00;101989.39;108071;1253;71471;-75
2024/03/12 04:45:11;;;;;;;24.90;18.10;;;;;;;-0.34;100.00;101990.10;109262;1254;58088;-75
2024/03/12 04:47:40;;;;;;;23.60;16.10;;;;;;;-0.32;100.00;101986.48;106188;1257;59736;-77
2024/03/12 04:50:11;;;;;;;26.50;18.70;;;;;;;-0.29;100.00;101989.77;105711;1254;73032;-75
2024/03/12 04:52:40;;;;;;;28.40;17.40;;;;;;;-0.23;100.00;101979.16;105756;1254;62278;-75
2024/03/12 04:55:08;;;;;;;28.20;17.70;;;;;;;-0.13;100.00;101978.38;105671;1254;71726;-75
2024/03/12 04:57:36;;;;;;;33.40;18.40;;;;;;;0.07;100.00;101981.58;105725;1253;60393;-75
2024/03/12 05:00:13;;;;;;;25.50;16.90;;;;;;;0.33;100.00;101981.54;105774;1253;60454;-76
2024/03/12 05:02:42;;;;;;;31.60;17.70;;;;;;;0.75;100.00;101983.91;105792;1257;73639;-75
2024/03/12 05:05:17;;;;;;;24.10;17.00;;;;;;;1.34;100.00;101982.27;105690;1253;64157;-75
2024/03/12 05:07:46;;;;;;;33.60;18.30;;;;;;;2.06;100.00;101980.63;105633;1259;72462;-75
2024/03/12 05:10:17;;;;;;;24.00;17.80;;;;;;;2.75;100.00;101987.42;105948;1256;59682;-75
2024/03/12 05:12:44;;;;;;;28.30;18.80;;;;;;;3.36;100.00;101988.91;105928;1253;59727;-74
2024/03/12 05:15:12;;;;;;;27.40;17.60;;;;;;;3.77;100.00;101992.89;105878;1256;71898;-76
2024/03/12 05:17:40;;;;;;;29.00;18.40;;;;;;;3.95;98.89;101987.51;105935;1251;62694;-75
2024/03/12 05:20:09;;;;;;;31.50;19.70;;;;;;;4.02;93.66;101989.86;105855;1253;72786;-75
2024/03/12 05:22:37;;;;;;;35.70;21.00;;;;;;;4.06;91.19;101992.92;105912;1255;59708;-75
2024/03/12 05:25:09;;;;;;;35.50;21.10;;;;;;;4.07;88.16;101999.33;105853;1251;59706;-76
2024/03/12 05:27:43;;;;;;;29.50;20.10;;;;;;;4.09;87.32;101995.15;105945;1256;73200;-75
2024/03/12 05:30:14;;;;;;;33.80;22.40;;;;;;;4.21;86.95;101995.20;105928;1251;62954;-77
2024/03/12 05:32:49;;;;;;;35.70;19.50;;;;;;;4.51;85.85;101998.30;105912;1251;71595;-73
2024/03/12 05:35:20;;;;;;;35.70;20.20;;;;;;;4.91;78.32;102001.41;105928;1256;59711;-74
2024/03/12 05:38:03;;;;;;;29.80;19.10;;;;;;;5.34;74.22;102000.94;105917;1251;61380;-74
2024/03/12 05:48:53;;;;;;;27.00;16.40;;;;;;;6.69;61.51;102005.38;105966;1256;59640;-75
2024/03/12 05:51:20;;;;;;;30.70;17.90;;;;;;;7.15;57.45;102004.20;105861;1251;59968;-74
2024/03/12 05:53:48;;;;;;;28.10;17.60;;;;;;;7.60;55.18;102009.88;105828;1251;72998;-76
2024/03/12 05:56:16;;;;;;;26.50;17.20;;;;;;;8.09;52.75;102005.30;105874;1251;62774;-75
2024/03/12 05:58:46;;;;;;;29.20;19.90;;;;;;;8.60;50.06;102004.06;105895;1253;71808;-76
2024/03/12 06:01:13;;;;;;;25.20;17.70;;;;;;;9.03;47.88;102004.35;105837;1253;59771;-75
2024/03/12 06:03:41;;;;;;;22.60;15.90;;;;;;;9.39;46.82;101999.52;105890;1253;59737;-74
2024/03/12 06:06:09;;;;;;;19.60;14.90;;;;;;;9.71;45.13;101998.79;105877;1256;73168;-75
2024/03/12 06:08:36;;;;;;;23.80;15.20;;;;;;;10.04;43.92;101996.59;105930;1256;61635;-76
2024/03/12 06:11:04;;;;;;;25.80;17.60;;;;;;;10.37;43.37;101998.55;105917;1251;75070;-75
2024/03/12 06:13:32;;;;;;;26.40;16.40;;;;;;;10.80;42.31;101999.06;105775;1251;60408;-74
2024/03/12 06:16:00;;;;;;;22.10;15.20;;;;;;;11.23;41.06;101995.61;105957;1256;59705;-76
2024/03/12 06:18:28;;;;;;;17.30;13.90;;;;;;;11.73;40.70;101993.70;105882;1256;73134;-75
2024/03/12 06:20:56;;;;;;;15.60;10.50;;;;;;;12.13;39.06;101992.50;105993;1254;62675;-76
2024/03/12 06:23:25;;;;;;;14.20;9.60;;;;;;;12.49;37.40;101989.83;105891;1253;71479;-74
2024/03/12 06:26:54;;;;;;;12.30;8.30;;;;;;;12.85;36.22;101990.29;102446;1298;600169;-75
2024/03/12 06:29:23;;;;;;;12.50;8.60;;;;;;;13.00;35.22;101995.90;104843;1270;59347;-74
2024/03/12 06:31:51;;;;;;;13.90;9.50;;;;;;;13.12;34.75;101995.67;104887;1273;59434;-76
2024/03/12 06:34:21;;;;;;;13.80;10.00;;;;;;;13.24;34.35;101993.15;105432;1257;70969;-75
2024/03/12 06:36:57;;;;;;;14.70;8.70;;;;;;;13.34;34.18;101997.42;105427;1258;64036;-73
2024/03/12 06:39:31;;;;;;;10.30;9.20;;;;;;;13.48;33.61;101995.67;108922;1257;209324;-75
2024/03/12 06:42:00;;;;;;;19.30;9.50;;;;;;;13.48;33.08;101992.31;109367;1256;58263;-74
2024/03/12 06:48:10;;;;;;;12.30;9.00;;;;;;;13.72;33.27;101994.45;102968;1291;600761;-75
2024/03/12 06:50:38;;;;;;;13.20;8.80;;;;;;;14.08;32.68;101991.20;104899;1270;60261;-75
2024/03/12 06:53:05;;;;;;;14.90;8.40;;;;;;;14.28;32.20;101995.24;104844;1271;59334;-75
2024/03/12 06:55:33;;;;;;;12.10;9.50;;;;;;;14.42;32.23;101993.58;104866;1266;71062;-75
2024/03/12 06:58:07;;;;;;;12.00;9.00;;;;;;;14.65;31.63;101992.55;104770;1268;63740;-75
2024/03/12 07:00:40;;;;;;;12.50;8.20;;;;;;;14.80;31.51;101989.77;104925;1266;71434;-75
2024/03/12 07:03:08;;;;;;;14.20;9.50;;;;;;;14.98;30.86;101987.88;104829;1270;60344;-76
2024/03/12 07:05:37;;;;;;;11.70;7.90;;;;;;;15.03;30.58;101982.67;105033;1265;59336;-75
2024/03/12 07:08:05;;;;;;;13.00;9.00;;;;;;;15.03;30.38;101981.47;105145;1262;72182;-75
2024/03/12 07:10:33;;;;;;;12.60;9.30;;;;;;;15.03;30.49;101985.13;105075;1268;63587;-76
2024/03/12 07:13:02;;;;;;;12.00;9.20;;;;;;;15.15;30.00;101982.17;105074;1268;72649;-75
2024/03/12 07:28:06;;;;;;;11.70;8.80;;;;;;;14.23;29.39;101975.24;102553;1294;615480;-74
2024/03/12 07:30:35;;;;;;;8.60;7.60;;;;;;;14.13;29.59;101971.07;105133;1267;59280;-74
2024/03/12 07:33:05;;;;;;;14.80;9.90;;;;;;;14.09;29.65;101968.59;105369;1268;59592;-74
2024/03/12 07:35:33;;;;;;;10.10;9.00;;;;;;;14.16;29.63;101966.49;108020;1266;71471;-73
2024/03/12 07:38:00;;;;;;;13.30;9.00;;;;;;;14.20;29.00;101962.21;108109;1266;63005;-74
2024/03/12 07:40:29;;;;;;;14.40;9.10;;;;;;;14.01;28.63;101962.53;104746;1271;211411;-75
2024/03/12 07:42:56;;;;;;;15.10;9.10;;;;;;;13.65;28.77;101960.55;105885;1254;59509;-75
2024/03/12 07:45:24;;;;;;;11.90;8.50;;;;;;;13.38;29.21;101961.72;105920;1256;61181;-75
2024/03/12 07:47:52;;;;;;;12.50;7.70;;;;;;;13.30;29.16;101956.14;105995;1256;73012;-75
2024/03/12 07:50:21;;;;;;;10.60;8.80;;;;;;;13.20;29.04;101957.14;105983;1256;65717;-76
2024/03/12 07:52:47;;;;;;;18.50;9.70;;;;;;;13.19;29.29;101959.10;105967;1256;72652;-73
2024/03/12 07:55:14;;;;;;;15.90;10.00;;;;;;;13.05;29.02;101961.75;105830;1256;60503;-75
2024/03/12 07:57:41;;;;;;;27.60;9.40;;;;;;;12.48;28.88;101962.02;105867;1256;61338;-75
2024/03/12 08:00:14;;;;;;;22.30;8.80;;;;;;;11.63;29.73;101956.30;105847;1257;72301;-76
2024/03/12 08:02:41;;;;;;;16.60;9.10;;;;;;;10.96;30.78;101952.74;105915;1254;64117;-74
2024/03/12 08:05:08;;;;;;;18.30;9.40;;;;;;;10.77;31.51;101956.66;105908;1257;72747;-74
2024/03/12 08:07:35;;;;;;;16.70;9.60;;;;;;;10.70;31.65;101948.35;105966;1257;61281;-75
2024/03/12 08:10:09;;;;;;;17.40;9.70;;;;;;;10.62;32.09;101946.57;106179;1255;59571;-73
2024/03/12 08:12:39;;;;;;;23.40;10.90;;;;;;;10.60;32.42;101940.56;105908;1256;73125;-73
2024/03/12 08:15:09;;;;;;;15.00;9.70;;;;;;;10.71;32.61;101934.17;106045;1257;63838;-74
2024/03/12 08:17:37;;;;;;;15.00;9.80;;;;;;;10.87;32.47;101926.70;105950;1255;73576;-73
2024/03/12 08:20:10;;;;;;;22.80;11.60;;;;;;;11.00;32.58;101921.80;105960;1254;60345;-76
2024/03/12 08:22:38;;;;;;;14.20;9.30;;;;;;;11.07;32.13;101919.77;105862;1256;60628;-75
2024/03/12 08:25:07;;;;;;;19.70;10.00;;;;;;;10.93;32.23;101915.97;105836;1257;72051;-73
2024/03/12 08:27:34;;;;;;;19.80;10.10;;;;;;;10.73;32.49;101913.63;105868;1257;63988;-75
2024/03/12 08:30:02;;;;;;;17.90;10.10;;;;;;;10.47;32.65;101912.89;105815;1264;72887;-75
2024/03/12 08:32:31;;;;;;;15.90;9.30;;;;;;;10.11;33.44;101910.04;105941;1257;60299;-74
2024/03/12 08:34:58;;;;;;;13.40;9.90;;;;;;;9.88;33.93;101898.81;106019;1256;61757;-76
2024/03/12 08:37:27;;;;;;;15.40;10.00;;;;;;;9.81;34.16;101889.27;106024;1256;73355;-74
2024/03/12 08:39:55;;;;;;;16.00;9.50;;;;;;;9.90;34.23;101885.29;105850;1257;63053;-75
2024/03/12 08:42:22;;;;;;;16.50;9.80;;;;;;;10.02;34.13;101879.96;105981;1257;73908;-74
2024/03/12 08:44:50;;;;;;;15.60;9.20;;;;;;;10.19;34.10;101875.98;105883;1252;59810;-74
2024/03/12 08:47:18;;;;;;;16.10;9.70;;;;;;;10.48;33.97;101872.80;105949;1256;61637;-75
2024/03/12 08:49:45;;;;;;;12.50;9.10;;;;;;;10.94;33.50;101865.52;105945;1256;72719;-73
2024/03/12 08:52:12;;;;;;;19.00;9.10;;;;;;;11.29;32.56;101865.81;105869;1252;64983;-76
2024/03/12 08:54:39;;;;;;;13.60;9.00;;;;;;;11.44;32.39;101872.17;105820;1265;73727;-74
2024/03/12 08:57:07;;;;;;;10.60;8.60;;;;;;;11.31;32.24;101865.53;105829;1257;61469;-72
2024/03/12 08:59:34;;;;;;;11.90;8.30;;;;;;;11.12;32.22;101861.27;105775;1256;60671;-74
2024/03/12 09:02:02;;;;;;;13.20;9.20;;;;;;;10.93;32.42;101864.14;105894;1261;72783;-72
2024/03/12 09:04:31;;;;;;;12.70;9.00;;;;;;;10.75;32.72;101861.95;105909;1256;63576;-74
2024/03/12 09:06:58;;;;;;;15.90;9.20;;;;;;;10.67;32.21;101873.30;106023;1251;70934;-74
2024/03/12 09:09:26;;;;;;;11.80;8.70;;;;;;;10.47;32.34;101864.98;105937;1256;60292;-76
2024/03/12 09:11:57;;;;;;;13.70;9.20;;;;;;;10.37;31.77;101879.55;105855;1257;60191;-74
2024/03/12 09:14:27;;;;;;;12.90;9.40;;;;;;;10.12;31.70;101879.92;105971;1251;74340;-75
2024/03/12 09:16:54;;;;;;;9.80;8.20;;;;;;;9.97;32.21;101870.91;105913;1252;64367;-75
2024/03/12 09:19:22;;;;;;;11.90;7.60;;;;;;;10.03;32.12;101866.14;105810;1252;70528;-74
2024/03/12 09:21:48;;;;;;;16.80;9.80;;;;;;;10.09;31.99;101867.11;105936;1256;60645;-75
2024/03/12 09:24:15;;;;;;;13.40;9.40;;;;;;;10.10;31.86;101863.39;106007;1251;59671;-76
2024/03/12 09:26:44;;;;;;;12.00;9.50;;;;;;;9.97;31.98;101857.27;105796;1255;72927;-75
2024/03/12 09:29:12;;;;;;;17.30;10.80;;;;;;;9.85;32.18;101857.02;105816;1256;63070;-74
2024/03/12 09:31:41;;;;;;;13.40;10.40;;;;;;;9.75;32.17;101854.59;105875;1255;71890;-75
2024/03/12 09:34:10;;;;;;;12.90;9.00;;;;;;;9.64;32.18;101850.77;105815;1256;59934;-75
2024/03/12 09:36:37;;;;;;;12.70;9.60;;;;;;;9.58;31.81;101849.09;105716;1257;59578;-76
2024/03/12 09:39:10;;;;;;;15.50;9.70;;;;;;;9.42;31.93;101841.79;105851;1255;74339;-74
2024/03/12 09:41:41;;;;;;;13.50;9.50;;;;;;;9.30;32.30;101844.15;105881;1257;64688;-74
2024/03/12 09:44:11;;;;;;;20.50;8.70;;;;;;;9.32;32.22;101837.09;106399;1260;71396;-76
2024/03/12 09:46:39;;;;;;;14.80;9.90;;;;;;;9.34;32.23;101832.64;105901;1256;59719;-75
2024/03/12 09:49:07;;;;;;;17.70;11.10;;;;;;;9.37;32.17;101833.11;105870;1251;59681;-74
2024/03/12 09:51:34;;;;;;;17.50;10.70;;;;;;;9.37;32.48;101835.55;105749;1251;73960;-74
2024/03/12 09:54:03;;;;;;;22.00;11.20;;;;;;;9.39;32.69;101835.44;106031;1251;62444;-73
2024/03/12 09:56:33;;;;;;;18.80;10.40;;;;;;;9.48;32.57;101834.26;105898;1257;72960;-74
2024/03/12 09:59:00;;;;;;;15.60;10.50;;;;;;;9.52;32.54;101826.77;105988;1256;61510;-76
2024/03/12 10:01:28;;;;;;;17.10;10.30;;;;;;;9.54;32.67;101817.98;105877;1252;59877;-73
2024/03/12 10:03:55;;;;;;;16.40;9.90;;;;;;;9.57;32.71;101816.30;105760;1258;73743;-74
2024/03/12 10:06:22;;;;;;;13.90;9.00;;;;;;;9.59;32.91;101816.07;105992;1251;63908;-74
2024/03/12 10:08:56;;;;;;;12.60;8.70;;;;;;;9.61;32.08;101816.48;105932;1256;72937;-74
2024/03/12 10:11:23;;;;;;;12.60;8.10;;;;;;;9.49;32.25;101810.14;106001;1251;60234;-75
2024/03/12 10:13:55;;;;;;;15.80;9.40;;;;;;;9.42;31.98;101801.84;105938;1257;59878;-76
2024/03/12 10:16:27;;;;;;;22.20;9.20;;;;;;;9.37;32.24;101798.02;106000;1253;71948;-75
2024/03/12 10:19:09;;;;;;;12.40;9.50;;;;;;;9.40;32.04;101789.34;105973;1255;64110;-75
2024/03/12 10:21:37;;;;;;;14.40;9.00;;;;;;;9.37;32.08;101782.29;105801;1256;71828;-74
2024/03/12 10:24:13;;;;;;;16.70;9.40;;;;;;;9.25;32.11;101782.00;105776;1257;60174;-72
2024/03/12 10:26:45;;;;;;;16.80;7.80;;;;;;;9.00;32.26;101779.77;105917;1256;60072;-74
2024/03/12 10:29:16;;;;;;;13.00;7.70;;;;;;;8.76;32.68;101773.95;105844;1256;73298;-74
2024/03/12 10:31:47;;;;;;;21.70;8.50;;;;;;;8.61;33.03;101773.05;106184;1256;64148;-74
2024/03/12 10:34:17;;;;;;;13.70;7.60;;;;;;;8.53;33.07;101765.49;108273;1251;72928;-73
2024/03/12 10:36:49;;;;;;;11.00;7.20;;;;;;;8.51;33.17;101763.80;109365;1255;57599;-74
2024/03/12 10:39:28;;;;;;;8.20;6.00;;;;;;;8.46;33.03;101760.81;106210;1265;60186;-74
2024/03/12 10:41:57;;;;;;;14.70;8.30;;;;;;;8.36;32.71;101761.65;105943;1251;74281;-74
2024/03/12 10:44:24;;;;;;;12.90;8.30;;;;;;;8.26;33.05;101754.29;106033;1251;62492;-72
2024/03/12 10:46:51;;;;;;;20.40;10.40;;;;;;;8.23;33.45;101746.56;105964;1251;71252;-75
2024/03/12 10:49:20;;;;;;;21.60;9.60;;;;;;;8.21;33.65;101750.98;105993;1251;59627;-73
2024/03/12 10:51:47;;;;;;;14.70;9.20;;;;;;;8.18;33.61;101747.06;105923;1256;59734;-75
2024/03/12 10:54:16;;;;;;;18.10;9.30;;;;;;;8.22;33.48;101744.16;105787;1257;73977;-75
2024/03/12 10:56:47;;;;;;;14.20;10.30;;;;;;;8.30;33.15;101740.06;105918;1251;62526;-75
2024/03/12 10:59:16;;;;;;;21.60;10.70;;;;;;;8.39;33.04;101744.14;105866;1256;72867;-74
2024/03/12 11:01:43;;;;;;;21.20;10.90;;;;;;;8.41;33.14;101739.20;105907;1253;59711;-76
2024/03/12 11:04:10;;;;;;;13.40;9.80;;;;;;;8.45;33.45;101737.36;105952;1251;60005;-75
2024/03/12 11:06:39;;;;;;;20.90;10.90;;;;;;;8.53;33.28;101734.48;106025;1251;74264;-74
2024/03/12 11:09:11;;;;;;;14.60;9.80;;;;;;;8.53;32.75;101736.38;105900;1256;63988;-75
2024/03/12 11:11:39;;;;;;;12.50;9.00;;;;;;;8.41;32.68;101735.54;105991;1256;72094;-74
2024/03/12 11:14:07;;;;;;;20.10;8.80;;;;;;;8.28;32.98;101735.77;105892;1251;59757;-75
2024/03/12 11:16:35;;;;;;;13.80;7.60;;;;;;;8.14;33.21;101733.77;105825;1251;59519;-73
2024/03/12 11:19:23;;;;;;;14.90;8.40;;;;;;;7.98;33.46;101730.27;105905;1256;74253;-73
2024/03/12 11:22:10;;;;;;;11.60;7.90;;;;;;;7.85;33.72;101721.61;105852;1251;64735;-73
2024/03/12 11:24:47;;;;;;;12.90;7.70;;;;;;;7.85;33.57;101720.20;105907;1256;72813;-73
2024/03/12 11:27:24;;;;;;;17.80;8.90;;;;;;;7.85;33.82;101723.05;105883;1256;61403;-74
2024/03/12 11:30:04;;;;;;;17.20;8.90;;;;;;;7.85;34.19;101718.30;105990;1256;60313;-74
2024/03/12 11:32:35;;;;;;;20.80;9.30;;;;;;;7.89;34.19;101719.23;105983;1251;74273;-74
2024/03/12 11:35:08;;;;;;;13.40;7.90;;;;;;;7.94;34.40;101721.36;105889;1255;65197;-73
2024/03/12 11:37:37;;;;;;;15.40;8.40;;;;;;;7.97;34.39;101717.42;105872;1251;71764;-75
2024/03/12 11:40:51;;;;;;;12.30;8.50;;;;;;;7.99;34.52;101714.74;105723;1251;60540;-75
2024/03/12 11:43:40;;;;;;;18.50;8.80;;;;;;;8.02;34.74;101714.65;105824;1256;61508;-74
2024/03/12 11:46:20;;;;;;;20.50;8.10;;;;;;;7.96;34.94;101713.96;105897;1251;74874;-75
2024/03/12 11:48:48;;;;;;;10.40;7.50;;;;;;;7.96;35.03;101710.85;105929;1258;62843;-75
2024/03/12 11:51:15;;;;;;;13.00;7.60;;;;;;;7.95;35.02;101707.40;105978;1255;72692;-75